createdAt,value
2019-04-23T00:00:48.882Z,31.19
2019-04-23T00:02:05.323Z,31.06
2019-04-23T00:03:25.860Z,31.19
2019-04-23T00:04:11.469Z,31.29
2019-04-23T00:05:31.310Z,31.38
2019-04-23T00:06:24.911Z,31.28
2019-04-23T00:07:46.591Z,31.36
2019-04-23T00:08:50.118Z,31.21
2019-04-23T00:09:49.729Z,31.17
2019-04-23T00:10:51.722Z,31.18
2019-04-23T00:12:06.552Z,31.25
2019-04-23T00:13:01.159Z,31.12
2019-04-23T00:14:12.211Z,31.10
2019-04-23T00:15:10.494Z,31.21
2019-04-23T00:16:26.514Z,31.14
2019-04-23T00:17:32.132Z,31.09
2019-04-23T00:18:37.383Z,31.05
2019-04-23T00:19:43.225Z,31.17
2019-04-23T00:20:52.873Z,31.09
2019-04-23T00:22:00.390Z,31.03
2019-04-23T00:23:10.957Z,30.91
2019-04-23T00:24:54.844Z,30.95
2019-04-23T00:25:51.034Z,30.99
2019-04-23T00:27:01.421Z,30.99
2019-04-23T00:27:59.820Z,31.00
2019-04-23T00:29:07.965Z,31.03
2019-04-23T00:32:25.182Z,31.29
2019-04-23T00:33:27.256Z,31.55
2019-04-23T00:34:33.351Z,31.33
2019-04-23T00:35:38.331Z,31.37
2019-04-23T00:37:40.366Z,31.28
2019-04-23T00:38:50.213Z,31.34
2019-04-23T00:39:57.828Z,31.23
2019-04-23T00:41:05.740Z,31.30
2019-04-23T00:42:16.847Z,31.26
2019-04-23T00:44:26.800Z,31.41
2019-04-23T00:45:34.669Z,31.67
2019-04-23T00:46:36.832Z,31.49
2019-04-23T00:47:40.135Z,31.52
2019-04-23T00:48:51.887Z,31.51
2019-04-23T00:50:02.089Z,31.61
2019-04-23T00:50:54.250Z,31.67
2019-04-23T00:52:09.543Z,31.65
2019-04-23T00:53:10.990Z,31.64
2019-04-23T00:54:17.776Z,31.87
2019-04-23T00:55:21.157Z,31.87
2019-04-23T00:57:38.889Z,31.91
2019-04-23T00:58:43.292Z,32.02
2019-04-23T00:59:55.826Z,31.96
2019-04-23T01:00:56.043Z,31.84
2019-04-23T01:02:01.133Z,31.97
2019-04-23T01:03:05.837Z,32.12
2019-04-23T01:04:05.830Z,32.18
2019-04-23T01:05:17.920Z,32.09
2019-04-23T01:07:29.890Z,32.29
2019-04-23T01:08:29.692Z,32.21
2019-04-23T01:09:47.387Z,32.05
2019-04-23T01:10:56.500Z,32.20
2019-04-23T01:12:00.878Z,32.13
2019-04-23T01:13:11.295Z,32.57
2019-04-23T01:14:11.639Z,32.53
2019-04-23T01:15:23.969Z,32.34
2019-04-23T01:17:32.270Z,32.51
2019-04-23T01:19:54.823Z,32.39
2019-04-23T01:20:53.548Z,32.55
2019-04-23T01:21:57.804Z,32.69
2019-04-23T01:23:05.342Z,32.53
2019-04-23T01:24:25.057Z,32.59
2019-04-23T01:25:37.248Z,32.44
2019-04-23T01:27:32.492Z,32.73
2019-04-23T01:28:28.249Z,32.92
2019-04-23T01:29:36.954Z,32.94
2019-04-23T01:30:38.752Z,32.73
2019-04-23T01:31:49.317Z,33.12
2019-04-23T01:33:05.934Z,33.05
2019-04-23T01:33:55.519Z,32.94
2019-04-23T01:35:15.140Z,32.80
2019-04-23T01:37:18.645Z,32.75
2019-04-23T01:38:22.270Z,33.10
2019-04-23T01:39:22.804Z,32.89
2019-04-23T01:41:42.634Z,32.76
2019-04-23T01:42:58.697Z,32.78
2019-04-23T01:44:05.259Z,32.95
2019-04-23T01:45:01.396Z,33.07
2019-04-23T01:46:02.785Z,33.05
2019-04-23T01:47:15.118Z,33.09
2019-04-23T01:48:12.446Z,33.08
2019-04-23T01:49:23.628Z,33.10
2019-04-23T01:50:31.167Z,33.22
2019-04-23T01:51:39.911Z,33.38
2019-04-23T01:52:45.602Z,33.26
2019-04-23T01:53:45.554Z,33.20
2019-04-23T01:54:58.052Z,33.32
2019-04-23T01:56:03.126Z,33.44
2019-04-23T01:57:03.208Z,33.41
2019-04-23T01:59:20.096Z,33.28
2019-04-23T02:00:24.166Z,33.28
2019-04-23T02:01:44.594Z,33.13
2019-04-23T02:02:39.103Z,33.27
2019-04-23T02:03:43.751Z,33.19
2019-04-23T02:04:44.863Z,33.25
2019-04-23T02:05:58.869Z,33.36
2019-04-23T02:06:59.416Z,33.57
2019-04-23T02:08:03.982Z,33.46
2019-04-23T02:09:28.914Z,33.72
2019-04-23T02:10:22.201Z,33.70
2019-04-23T02:11:23.155Z,33.53
2019-04-23T02:12:33.384Z,33.56
2019-04-23T02:13:49.080Z,33.64
2019-04-23T02:14:43.210Z,33.51
2019-04-23T02:16:06.696Z,33.42
2019-04-23T02:16:49.600Z,33.24
2019-04-23T02:18:08.069Z,33.44
2019-04-23T02:19:03.655Z,33.42
2019-04-23T02:20:17.934Z,33.43
2019-04-23T02:21:35.371Z,33.39
2019-04-23T02:22:52.674Z,33.45
2019-04-23T02:23:50.778Z,33.55
2019-04-23T02:24:56.764Z,33.53
2019-04-23T02:26:12.879Z,33.82
2019-04-23T02:27:05.616Z,33.79
2019-04-23T02:28:19.184Z,33.86
2019-04-23T02:29:28.705Z,33.91
2019-04-23T02:31:54.936Z,34.25
2019-04-23T02:32:46.231Z,34.24
2019-04-23T02:35:01.624Z,34.31
2019-04-23T02:37:19.370Z,34.52
2019-04-23T02:39:15.010Z,34.48
2019-04-23T02:40:38.059Z,34.68
2019-04-23T02:41:35.052Z,34.66
2019-04-23T02:43:00.909Z,34.48
2019-04-23T02:43:44.236Z,34.53
2019-04-23T02:44:47.002Z,34.54
2019-04-23T02:48:10.835Z,34.74
2019-04-23T02:50:33.109Z,34.77
2019-04-23T02:51:26.822Z,34.89
2019-04-23T02:52:28.829Z,34.88
2019-04-23T02:53:44.326Z,34.72
2019-04-23T02:55:54.986Z,34.79
2019-04-23T02:56:51.469Z,34.85
2019-04-23T02:58:00.708Z,35.12
2019-04-23T02:59:10.232Z,34.88
2019-04-23T03:00:18.894Z,34.97
2019-04-23T03:02:37.069Z,35.20
2019-04-23T03:03:33.512Z,35.05
2019-04-23T03:05:46.420Z,34.91
2019-04-23T03:06:56.872Z,35.11
2019-04-23T03:07:52.780Z,35.26
2019-04-23T03:10:08.362Z,35.38
2019-04-23T03:11:20.024Z,35.38
2019-04-23T03:12:25.015Z,35.19
2019-04-23T03:13:35.322Z,35.29
2019-04-23T03:14:37.722Z,35.52
2019-04-23T03:15:52.630Z,35.52
2019-04-23T03:16:53.974Z,35.41
2019-04-23T03:18:28.575Z,35.44
2019-04-23T03:19:21.752Z,35.29
2019-04-23T03:20:43.602Z,35.48
2019-04-23T03:22:44.545Z,35.38
2019-04-23T03:24:17.746Z,35.54
2019-04-23T03:26:57.374Z,36.00
2019-04-23T03:27:34.230Z,35.81
2019-04-23T03:29:04.014Z,35.90
2019-04-23T03:29:57.582Z,35.78
2019-04-23T03:36:17.237Z,36.17
2019-04-23T03:37:02.505Z,36.37
2019-04-23T03:37:40.738Z,36.12
2019-04-23T03:40:04.588Z,36.41
2019-04-23T03:40:59.451Z,36.22
2019-04-23T03:41:59.692Z,36.24
2019-04-23T03:43:12.279Z,36.51
2019-04-23T03:44:09.294Z,36.34
2019-04-23T03:47:37.485Z,36.61
2019-04-23T03:50:39.426Z,36.91
2019-04-23T03:52:23.265Z,36.92
2019-04-23T03:52:57.261Z,36.78
2019-04-23T03:54:21.308Z,37.12
2019-04-23T03:55:12.310Z,37.12
2019-04-23T03:56:22.447Z,37.05
2019-04-23T03:58:47.445Z,37.19
2019-04-23T04:00:47.428Z,37.17
2019-04-23T04:05:05.115Z,37.18
2019-04-23T04:07:28.347Z,37.09
2019-04-23T04:08:37.114Z,37.17
2019-04-23T04:09:34.803Z,37.26
2019-04-23T04:10:44.407Z,37.33
2019-04-23T04:11:33.458Z,37.30
2019-04-23T04:14:07.089Z,36.92
2019-04-23T04:15:33.261Z,37.02
2019-04-23T04:17:15.904Z,37.05
2019-04-23T04:18:33.002Z,36.90
2019-04-23T04:19:37.332Z,36.92
2019-04-23T04:20:39.885Z,36.73
2019-04-23T04:23:57.667Z,37.21
2019-04-23T04:29:20.868Z,37.21
2019-04-23T04:30:29.564Z,37.43
2019-04-23T04:36:03.754Z,37.55
2019-04-23T04:38:16.517Z,37.31
2019-04-23T04:39:07.347Z,37.46
2019-04-23T04:42:55.802Z,37.32
2019-04-23T04:43:45.327Z,37.40
2019-04-23T04:45:00.051Z,37.46
2019-04-23T04:46:10.418Z,37.56
2019-04-23T04:48:18.147Z,38.17
2019-04-23T04:50:04.725Z,38.21
2019-04-23T04:51:28.966Z,38.03
2019-04-23T04:54:26.327Z,38.49
2019-04-23T04:55:47.172Z,38.87
2019-04-23T04:56:55.849Z,38.95
2019-04-23T04:59:06.111Z,39.12
2019-04-23T05:00:10.580Z,39.27
2019-04-23T05:01:13.732Z,39.22
2019-04-23T05:02:30.393Z,39.14
2019-04-23T05:03:25.874Z,39.48
2019-04-23T05:04:37.873Z,39.01
2019-04-23T05:06:56.766Z,39.09
2019-04-23T05:07:48.077Z,38.96
2019-04-23T05:09:00.643Z,38.97
2019-04-23T05:12:18.488Z,38.91
2019-04-23T05:15:28.402Z,38.94
2019-04-23T05:16:35.546Z,38.94
2019-04-23T05:18:03.237Z,38.90
2019-04-23T05:20:04.574Z,39.09
2019-04-23T05:21:12.087Z,38.87
2019-04-23T05:22:22.665Z,38.82
2019-04-23T05:23:26.996Z,38.88
2019-04-23T05:24:36.804Z,38.66
2019-04-23T05:25:33.082Z,39.15
2019-04-23T05:26:30.380Z,38.67
2019-04-23T05:27:55.310Z,38.57
2019-04-23T05:30:02.956Z,38.99
2019-04-23T05:31:09.842Z,39.10
2019-04-23T05:32:12.136Z,38.94
2019-04-23T05:34:24.371Z,38.97
2019-04-23T05:35:46.585Z,38.82
2019-04-23T05:38:13.997Z,39.01
2019-04-23T05:39:53.532Z,39.21
2019-04-23T05:41:11.848Z,39.21
2019-04-23T05:42:05.708Z,39.17
2019-04-23T05:43:15.819Z,39.17
2019-04-23T05:44:21.215Z,39.16
2019-04-23T05:45:31.811Z,39.16
2019-04-23T05:46:33.129Z,39.14
2019-04-23T05:47:33.230Z,39.03
2019-04-23T05:48:37.356Z,38.94
2019-04-23T05:49:54.478Z,38.91
2019-04-23T05:52:09.432Z,38.66
2019-04-23T05:54:12.977Z,38.74
2019-04-23T05:55:34.351Z,38.75
2019-04-23T05:56:27.710Z,38.64
2019-04-23T05:57:34.619Z,38.61
2019-04-23T05:58:38.657Z,38.67
2019-04-23T05:59:42.173Z,38.79
2019-04-23T06:00:59.928Z,38.72
2019-04-23T06:03:05.806Z,38.58
2019-04-23T06:05:20.143Z,38.63
2019-04-23T06:06:29.797Z,38.51
2019-04-23T06:07:42.675Z,38.65
2019-04-23T06:08:38.599Z,38.65
2019-04-23T06:09:41.748Z,38.47
2019-04-23T06:10:48.139Z,38.39
2019-04-23T06:12:57.721Z,38.69
2019-04-23T06:14:05.276Z,38.69
2019-04-23T06:16:25.291Z,38.78
2019-04-23T06:17:29.893Z,39.01
2019-04-23T06:18:34.207Z,38.96
2019-04-23T06:19:24.596Z,39.18
2019-04-23T06:20:42.320Z,39.14
2019-04-23T06:22:13.945Z,39.56
2019-04-23T06:23:58.511Z,39.58
2019-04-23T06:25:35.763Z,39.29
2019-04-23T06:26:24.272Z,39.89
2019-04-23T06:27:18.236Z,39.94
2019-04-23T06:28:24.679Z,39.69
2019-04-23T06:29:39.394Z,39.99
2019-04-23T06:30:40.848Z,39.99
2019-04-23T06:31:44.034Z,40.09
2019-04-23T06:32:44.806Z,40.28
2019-04-23T06:33:57.202Z,40.18
2019-04-23T06:34:56.872Z,40.19
2019-04-23T06:36:05.199Z,40.10
2019-04-23T06:37:09.327Z,39.92
2019-04-23T06:39:26.025Z,40.18
2019-04-23T06:40:27.721Z,40.37
2019-04-23T06:41:36.225Z,40.25
2019-04-23T06:42:58.260Z,40.47
2019-04-23T06:44:14.532Z,40.27
2019-04-23T06:45:04.786Z,40.42
2019-04-23T06:46:20.009Z,40.58
2019-04-23T06:47:20.092Z,40.39
2019-04-23T06:48:30.256Z,40.25
2019-04-23T06:50:43.603Z,40.61
2019-04-23T06:51:53.338Z,40.50
2019-04-23T06:52:50.547Z,41.16
2019-04-23T06:53:57.817Z,40.83
2019-04-23T06:56:11.773Z,40.88
2019-04-23T06:58:26.244Z,40.91
2019-04-23T06:59:41.371Z,41.34
2019-04-23T07:00:41.325Z,41.03
2019-04-23T07:01:56.308Z,41.01
2019-04-23T07:02:54.040Z,41.40
2019-04-23T07:03:57.153Z,41.49
2019-04-23T07:05:06.629Z,41.27
2019-04-23T07:08:22.457Z,41.85
2019-04-23T07:09:40.099Z,41.43
2019-04-23T07:10:39.063Z,41.12
2019-04-23T07:11:44.756Z,41.17
2019-04-23T07:12:52.313Z,41.36
2019-04-23T07:13:57.120Z,41.13
2019-04-23T07:15:01.095Z,41.04
2019-04-23T07:16:07.765Z,41.06
2019-04-23T07:17:08.514Z,41.16
2019-04-23T07:18:16.327Z,41.31
2019-04-23T07:19:25.083Z,41.05
2019-04-23T07:20:31.718Z,41.18
2019-04-23T07:21:27.818Z,41.17
2019-04-23T07:22:35.993Z,41.25
2019-04-23T07:23:53.945Z,41.12
2019-04-23T07:24:52.858Z,41.27
2019-04-23T07:26:08.088Z,41.29
2019-04-23T07:27:02.387Z,41.06
2019-04-23T07:28:13.203Z,41.08
2019-04-23T07:29:15.908Z,41.26
2019-04-23T07:30:28.633Z,41.16
2019-04-23T07:32:36.002Z,41.18
2019-04-23T07:33:47.593Z,40.95
2019-04-23T07:34:49.421Z,40.77
2019-04-23T07:35:51.716Z,40.57
2019-04-23T07:37:02.943Z,40.42
2019-04-23T07:38:32.649Z,40.51
2019-04-23T07:39:45.637Z,40.74
2019-04-23T07:40:40.467Z,40.58
2019-04-23T07:42:03.624Z,40.65
2019-04-23T07:43:08.351Z,40.71
2019-04-23T07:45:58.353Z,40.40
2019-04-23T07:47:03.745Z,40.38
2019-04-23T07:48:13.373Z,40.26
2019-04-23T07:49:15.147Z,40.25
2019-04-23T07:51:29.493Z,40.40
2019-04-23T07:52:45.939Z,40.19
2019-04-23T07:53:46.549Z,40.32
2019-04-23T07:54:55.105Z,40.00
2019-04-23T07:55:56.800Z,39.87
2019-04-23T07:57:08.898Z,39.75
2019-04-23T07:58:14.329Z,39.86
2019-04-23T07:59:14.266Z,39.49
2019-04-23T08:00:18.249Z,39.58
2019-04-23T08:01:19.562Z,39.56
2019-04-23T08:02:29.940Z,39.59
2019-04-23T08:03:40.351Z,39.69
2019-04-23T08:04:55.664Z,39.64
2019-04-23T08:05:42.501Z,39.46
2019-04-23T08:06:56.054Z,39.49
2019-04-23T08:09:00.873Z,39.70
2019-04-23T08:10:10.099Z,39.27
2019-04-23T08:12:28.892Z,38.45
2019-04-23T08:13:42.335Z,38.20
2019-04-23T08:14:40.466Z,38.21
2019-04-23T08:15:43.375Z,38.22
2019-04-23T08:16:42.495Z,38.12
2019-04-23T08:17:51.111Z,38.25
2019-04-23T08:20:07.895Z,38.38
2019-04-23T08:21:09.842Z,38.14
2019-04-23T08:23:24.498Z,37.97
2019-04-23T08:24:52.157Z,38.01
2019-04-23T08:26:02.460Z,38.26
2019-04-23T08:26:59.655Z,38.68
2019-04-23T08:28:13.555Z,38.53
2019-04-23T08:30:43.021Z,37.86
2019-04-23T08:32:52.206Z,38.11
2019-04-23T08:34:09.153Z,38.17
2019-04-23T08:35:01.318Z,38.06
2019-04-23T08:36:18.137Z,38.21
2019-04-23T08:37:24.718Z,38.02
2019-04-23T08:38:25.969Z,38.31
2019-04-23T08:39:32.391Z,38.20
2019-04-23T08:40:35.326Z,38.18
2019-04-23T08:41:59.696Z,37.97
2019-04-23T08:44:23.985Z,38.05
2019-04-23T08:45:15.309Z,38.40
2019-04-23T08:46:56.756Z,37.50
2019-04-23T08:48:11.053Z,38.00
2019-04-23T08:49:20.023Z,37.93
2019-04-23T08:50:24.889Z,37.97
2019-04-23T08:51:31.560Z,38.09
2019-04-23T08:52:25.551Z,38.17
2019-04-23T08:53:37.835Z,37.14
2019-04-23T08:55:44.269Z,37.30
2019-04-23T08:56:57.015Z,37.20
2019-04-23T08:57:47.421Z,37.33
2019-04-23T08:59:11.012Z,36.92
2019-04-23T09:00:09.277Z,37.28
2019-04-23T09:02:31.234Z,37.21
2019-04-23T09:04:45.576Z,37.08
2019-04-23T09:06:47.227Z,36.52
2019-04-23T09:09:02.194Z,36.28
2019-04-23T09:10:04.393Z,36.64
2019-04-23T09:11:16.689Z,36.59
2019-04-23T09:12:18.781Z,36.32
2019-04-23T09:14:23.108Z,36.20
2019-04-23T09:15:39.048Z,35.73
2019-04-23T09:16:46.372Z,35.74
2019-04-23T09:17:57.718Z,36.08
2019-04-23T09:18:52.814Z,35.66
2019-04-23T09:21:02.140Z,36.00
2019-04-23T09:23:20.313Z,36.56
2019-04-23T09:24:29.601Z,36.81
2019-04-23T09:25:36.808Z,36.47
2019-04-23T09:26:33.955Z,36.25
2019-04-23T09:27:39.698Z,36.24
2019-04-23T09:30:00.866Z,35.51
2019-04-23T09:31:40.299Z,35.53
2019-04-23T09:32:30.187Z,35.95
2019-04-23T09:33:46.637Z,36.19
2019-04-23T09:34:58.914Z,36.30
2019-04-23T09:36:25.769Z,36.38
2019-04-23T09:37:43.692Z,36.52
2019-04-23T09:38:44.992Z,36.21
2019-04-23T09:39:58.821Z,35.97
2019-04-23T09:41:22.176Z,35.90
2019-04-23T09:42:54.543Z,36.00
2019-04-23T09:44:09.202Z,35.87
2019-04-23T09:46:34.411Z,35.75
2019-04-23T09:47:57.365Z,35.65
2019-04-23T09:50:11.872Z,35.37
2019-04-23T09:51:10.301Z,35.45
2019-04-23T09:52:20.121Z,35.66
2019-04-23T09:53:26.854Z,35.76
2019-04-23T09:54:37.799Z,35.65
2019-04-23T09:56:05.001Z,35.47
2019-04-23T09:56:42.801Z,35.61
2019-04-23T09:57:51.933Z,35.80
2019-04-23T09:59:02.451Z,35.42
2019-04-23T10:00:02.600Z,34.86
2019-04-23T10:01:11.971Z,34.86
2019-04-23T10:02:08.694Z,34.83
2019-04-23T10:03:10.680Z,35.05
2019-04-23T10:04:15.444Z,35.20
2019-04-23T10:05:22.635Z,34.61
2019-04-23T10:06:22.699Z,34.63
2019-04-23T10:07:36.264Z,34.88
2019-04-23T10:08:35.368Z,34.86
2019-04-23T10:09:34.231Z,34.93
2019-04-23T10:10:38.476Z,34.91
2019-04-23T10:11:43.136Z,34.54
2019-04-23T10:12:48.423Z,34.46
2019-04-23T10:13:52.912Z,34.38
2019-04-23T10:15:09.396Z,34.47
2019-04-23T10:16:06.442Z,34.10
2019-04-23T10:17:10.740Z,34.28
2019-04-23T10:18:16.201Z,33.91
2019-04-23T10:19:20.610Z,33.20
2019-04-23T10:20:26.830Z,33.51
2019-04-23T10:21:31.238Z,33.90
2019-04-23T10:22:37.573Z,33.90
2019-04-23T10:23:43.165Z,33.81
2019-04-23T10:24:48.902Z,33.64
2019-04-23T10:25:54.198Z,33.11
2019-04-23T10:26:59.863Z,33.30
2019-04-23T10:28:09.329Z,33.84
2019-04-23T10:29:16.126Z,33.92
2019-04-23T10:30:21.723Z,33.93
2019-04-23T10:31:27.019Z,33.82
2019-04-23T10:32:31.809Z,33.96
2019-04-23T10:33:36.007Z,33.05
2019-04-23T10:34:54.205Z,33.38
2019-04-23T10:35:56.396Z,33.43
2019-04-23T10:36:53.491Z,33.56
2019-04-23T10:38:03.877Z,33.72
2019-04-23T10:39:11.594Z,33.12
2019-04-23T10:40:18.775Z,33.10
2019-04-23T10:41:20.113Z,33.45
2019-04-23T10:42:25.379Z,33.24
2019-04-23T10:43:31.556Z,33.45
2019-04-23T10:44:45.814Z,33.24
2019-04-23T10:46:08.044Z,32.65
2019-04-23T10:48:49.501Z,32.65
2019-04-23T10:49:52.927Z,32.38
2019-04-23T10:52:24.903Z,32.07
2019-04-23T10:53:26.243Z,32.34
2019-04-23T10:54:26.466Z,32.71
2019-04-23T10:55:32.178Z,32.10
2019-04-23T10:56:40.052Z,32.32
2019-04-23T10:57:31.221Z,32.47
2019-04-23T10:58:38.329Z,32.26
2019-04-23T11:01:04.215Z,32.49
2019-04-23T11:02:23.953Z,32.69
2019-04-23T11:03:23.770Z,32.51
2019-04-23T11:04:36.030Z,32.60
2019-04-23T11:05:30.443Z,32.57
2019-04-23T11:06:30.810Z,32.59
2019-04-23T11:08:38.658Z,31.94
2019-04-23T11:10:50.199Z,31.78
2019-04-23T11:12:16.295Z,31.76
2019-04-23T11:13:19.145Z,31.77
2019-04-23T11:15:40.266Z,31.53
2019-04-23T11:17:43.184Z,31.06
2019-04-23T11:18:51.946Z,30.76
2019-04-23T11:20:47.986Z,31.01
2019-04-23T11:22:24.116Z,30.83
2019-04-23T11:22:57.153Z,30.82
2019-04-23T11:24:20.687Z,30.62
2019-04-23T11:25:26.665Z,30.60
2019-04-23T11:26:29.877Z,30.38
2019-04-23T11:29:38.838Z,30.98
2019-04-23T11:30:44.979Z,30.92
2019-04-23T11:32:05.984Z,31.22
2019-04-23T11:33:09.894Z,30.89
2019-04-23T11:34:19.318Z,31.03
2019-04-23T11:35:24.249Z,30.55
2019-04-23T11:36:48.163Z,30.69
2019-04-23T11:38:17.111Z,31.11
2019-04-23T11:38:50.840Z,29.86
2019-04-23T11:40:42.192Z,30.47
2019-04-23T11:42:01.564Z,30.05
2019-04-23T11:44:13.377Z,29.87
2019-04-23T11:45:12.749Z,29.79
2019-04-23T11:46:33.923Z,30.02
2019-04-23T11:47:45.537Z,30.15
2019-04-23T11:51:21.884Z,29.48
2019-04-23T11:51:54.706Z,29.87
2019-04-23T11:52:57.103Z,30.31
2019-04-23T11:55:15.658Z,30.27
2019-04-23T11:58:32.007Z,30.20
2019-04-23T12:00:46.442Z,30.01
2019-04-23T12:03:03.032Z,29.54
2019-04-23T12:04:26.669Z,29.51
2019-04-23T12:05:42.804Z,29.14
2019-04-23T12:06:59.712Z,29.02
2019-04-23T12:08:17.262Z,29.73
2019-04-23T12:09:26.239Z,29.35
2019-04-23T12:11:52.703Z,29.78
2019-04-23T12:12:46.009Z,29.59
2019-04-23T12:15:12.582Z,29.61
2019-04-23T12:16:23.630Z,29.86
2019-04-23T12:17:24.918Z,29.98
2019-04-23T12:18:36.517Z,30.34
2019-04-23T12:20:36.239Z,30.14
2019-04-23T12:21:58.294Z,30.18
2019-04-23T12:24:10.746Z,30.45
2019-04-23T12:25:17.409Z,30.61
2019-04-23T12:27:25.650Z,30.43
2019-04-23T12:28:20.777Z,29.86
2019-04-23T12:29:33.134Z,29.47
2019-04-23T12:30:42.077Z,29.70
2019-04-23T12:31:47.224Z,29.61
2019-04-23T12:32:57.605Z,29.54
2019-04-23T12:33:57.390Z,29.66
2019-04-23T12:35:04.256Z,29.72
2019-04-23T12:36:38.031Z,29.85
2019-04-23T12:37:42.797Z,30.24
2019-04-23T12:38:46.849Z,30.17
2019-04-23T12:40:03.153Z,29.70
2019-04-23T12:40:56.237Z,29.07
2019-04-23T12:42:19.788Z,28.74
2019-04-23T12:43:12.110Z,29.06
2019-04-23T12:44:14.874Z,29.19
2019-04-23T12:48:59.904Z,29.90
2019-04-23T12:53:43.225Z,29.04
2019-04-23T12:55:50.242Z,28.85
2019-04-23T12:57:12.569Z,28.96
2019-04-23T12:58:15.252Z,28.78
2019-04-23T12:59:20.191Z,29.42
2019-04-23T13:01:54.084Z,29.00
2019-04-23T13:03:13.484Z,29.31
2019-04-23T13:03:59.669Z,29.54
2019-04-23T13:05:10.207Z,28.84
2019-04-23T13:06:17.259Z,28.93
2019-04-23T13:07:28.652Z,28.76
2019-04-23T13:08:38.029Z,28.79
2019-04-23T13:09:45.720Z,29.04
2019-04-23T13:10:45.366Z,29.12
2019-04-23T13:11:51.672Z,29.53
2019-04-23T13:13:11.328Z,29.11
2019-04-23T13:14:08.881Z,28.86
2019-04-23T13:16:25.287Z,29.26
2019-04-23T13:19:51.384Z,29.72
2019-04-23T13:23:03.083Z,29.45
2019-04-23T13:24:27.075Z,29.75
2019-04-23T13:27:05.804Z,29.51
2019-04-23T13:28:08.397Z,29.70
2019-04-23T13:29:23.808Z,30.24
2019-04-23T13:30:23.299Z,29.97
2019-04-23T13:31:21.753Z,29.71
2019-04-23T13:32:36.020Z,29.89
2019-04-23T13:35:25.706Z,30.33
2019-04-23T13:37:00.323Z,30.34
2019-04-23T13:39:18.259Z,30.17
2019-04-23T13:40:24.735Z,30.00
2019-04-23T13:42:40.850Z,30.33
2019-04-23T13:43:40.524Z,30.29
2019-04-23T13:44:45.546Z,29.88
2019-04-23T13:47:03.551Z,30.14
2019-04-23T13:48:03.442Z,30.43
2019-04-23T13:49:08.724Z,30.18
2019-04-23T13:53:40.788Z,30.12
2019-04-23T13:55:04.032Z,30.28
2019-04-23T13:55:47.090Z,29.92
2019-04-23T13:57:24.017Z,30.04
2019-04-23T13:58:11.688Z,29.67
2019-04-23T13:59:21.847Z,29.64
2019-04-23T14:00:44.679Z,29.70
2019-04-23T14:01:30.903Z,29.86
2019-04-23T14:02:40.400Z,29.33
2019-04-23T14:03:42.928Z,29.74
2019-04-23T14:06:10.800Z,29.89
2019-04-23T14:07:21.355Z,30.06
2019-04-23T14:08:20.495Z,30.25
2019-04-23T14:09:37.253Z,30.41
2019-04-23T14:10:40.155Z,30.43
2019-04-23T14:11:51.796Z,30.07
2019-04-23T14:13:08.293Z,30.53
2019-04-23T14:15:04.381Z,30.46
2019-04-23T14:16:22.079Z,30.39
2019-04-23T14:17:26.829Z,30.23
2019-04-23T14:19:22.616Z,29.74
2019-04-23T14:20:35.299Z,29.91
2019-04-23T14:21:40.625Z,30.02
2019-04-23T14:22:59.993Z,30.09
2019-04-23T14:27:20.099Z,30.52
2019-04-23T14:28:28.148Z,30.43
2019-04-23T14:29:42.743Z,30.26
2019-04-23T14:31:43.444Z,29.63
2019-04-23T14:33:03.447Z,29.66
2019-04-23T14:35:21.324Z,29.87
2019-04-23T14:36:19.071Z,29.80
2019-04-23T14:37:17.029Z,29.80
2019-04-23T14:38:33.261Z,29.64
2019-04-23T14:39:31.758Z,29.58
2019-04-23T14:40:44.912Z,29.74
2019-04-23T14:42:06.887Z,29.89
2019-04-23T14:43:03.561Z,29.98
2019-04-23T14:44:12.857Z,30.18
2019-04-23T14:45:23.069Z,30.38
2019-04-23T14:47:39.751Z,30.43
2019-04-23T14:48:23.593Z,30.65
2019-04-23T14:50:39.843Z,30.99
2019-04-23T14:51:51.619Z,31.15
2019-04-23T14:53:06.776Z,30.89
2019-04-23T14:54:09.277Z,30.76
2019-04-23T14:55:40.596Z,30.37
2019-04-23T14:56:23.944Z,30.33
2019-04-23T14:57:35.109Z,30.26
2019-04-23T14:58:51.660Z,30.41
2019-04-23T14:59:36.221Z,30.62
2019-04-23T15:01:49.148Z,30.49
2019-04-23T15:03:00.209Z,30.72
2019-04-23T15:03:55.539Z,30.79
2019-04-23T15:05:15.497Z,31.00
2019-04-23T15:06:19.850Z,31.14
2019-04-23T15:07:25.885Z,31.08
2019-04-23T15:08:32.905Z,30.89
2019-04-23T15:09:37.105Z,30.95
2019-04-23T15:10:41.085Z,30.67
2019-04-23T15:12:51.991Z,30.66
2019-04-23T15:13:55.398Z,30.65
2019-04-23T15:15:18.006Z,30.73
2019-04-23T15:16:22.251Z,30.67
2019-04-23T15:17:20.576Z,30.67
2019-04-23T15:18:48.555Z,30.60
2019-04-23T15:22:07.847Z,30.79
2019-04-23T15:23:37.646Z,30.73
2019-04-23T15:24:25.085Z,30.27
2019-04-23T15:25:53.327Z,30.09
2019-04-23T15:27:33.048Z,30.76
2019-04-23T15:28:18.879Z,30.37
2019-04-23T15:29:44.997Z,30.29
2019-04-23T15:30:57.527Z,30.32
2019-04-23T15:32:03.204Z,30.44
2019-04-23T15:33:30.010Z,30.33
2019-04-23T15:34:14.115Z,30.65
2019-04-23T15:35:31.334Z,30.32
2019-04-23T15:36:50.818Z,30.12
2019-04-23T15:39:49.591Z,30.21
2019-04-23T15:40:51.215Z,30.33
2019-04-23T15:42:08.076Z,30.37
2019-04-23T15:45:15.130Z,29.93
2019-04-23T15:46:27.847Z,30.07
2019-04-23T15:47:32.007Z,30.12
2019-04-23T15:48:31.344Z,30.03
2019-04-23T15:49:45.034Z,30.09
2019-04-23T15:50:54.007Z,30.09
2019-04-23T15:52:56.495Z,30.26
2019-04-23T15:55:05.900Z,30.05
2019-04-23T15:56:26.491Z,30.12
2019-04-23T15:57:43.270Z,30.12
2019-04-23T15:58:33.295Z,30.03
2019-04-23T15:59:47.928Z,30.13
2019-04-23T16:00:42.270Z,30.13
2019-04-23T16:01:39.440Z,30.02
2019-04-23T16:02:24.781Z,29.92
2019-04-23T16:03:29.980Z,30.00
2019-04-23T16:04:35.722Z,29.98
2019-04-23T16:05:41.268Z,29.97
2019-04-23T16:06:45.756Z,30.03
2019-04-23T16:08:11.487Z,30.17
2019-04-23T16:09:16.266Z,30.09
2019-04-23T16:10:28.875Z,30.12
2019-04-23T16:12:41.649Z,30.37
2019-04-23T16:14:05.789Z,30.52
2019-04-23T16:16:07.730Z,30.11
2019-04-23T16:17:11.986Z,30.30
2019-04-23T16:18:33.238Z,30.41
2019-04-23T16:19:43.230Z,30.23
2019-04-23T16:22:51.403Z,30.65
2019-04-23T16:24:07.194Z,30.80
2019-04-23T16:26:24.220Z,30.42
2019-04-23T16:27:17.017Z,30.29
2019-04-23T16:28:42.437Z,30.16
2019-04-23T16:29:46.895Z,30.14
2019-04-23T16:30:40.814Z,30.12
2019-04-23T16:31:56.480Z,30.96
2019-04-23T16:34:14.120Z,30.40
2019-04-23T16:35:20.070Z,30.52
2019-04-23T16:36:19.792Z,30.42
2019-04-23T16:37:24.881Z,30.34
2019-04-23T16:39:40.412Z,30.37
2019-04-23T16:40:57.191Z,30.34
2019-04-23T16:41:54.721Z,30.20
2019-04-23T16:43:03.796Z,30.06
2019-04-23T16:44:09.398Z,30.27
2019-04-23T16:45:21.277Z,30.48
2019-04-23T16:47:23.943Z,30.08
2019-04-23T16:48:55.489Z,30.12
2019-04-23T16:50:56.528Z,30.17
2019-04-23T16:51:45.488Z,30.28
2019-04-23T16:52:51.896Z,30.32
2019-04-23T16:54:01.400Z,30.32
2019-04-23T16:55:09.284Z,30.36
2019-04-23T16:58:25.138Z,29.94
2019-04-23T16:59:48.115Z,29.93
2019-04-23T17:00:43.766Z,29.52
2019-04-23T17:01:48.885Z,29.69
2019-04-23T17:02:59.727Z,29.83
2019-04-23T17:04:01.414Z,29.93
2019-04-23T17:05:02.798Z,30.02
2019-04-23T17:06:12.282Z,30.12
2019-04-23T17:07:06.905Z,30.15
2019-04-23T17:09:29.064Z,30.40
2019-04-23T17:10:38.481Z,30.42
2019-04-23T17:11:34.231Z,30.09
2019-04-23T17:12:46.211Z,30.02
2019-04-23T17:13:44.734Z,30.11
2019-04-23T17:14:54.486Z,30.18
2019-04-23T17:16:12.128Z,30.25
2019-04-23T17:16:59.752Z,30.15
2019-04-23T17:18:12.224Z,30.23
2019-04-23T17:21:34.151Z,30.56
2019-04-23T17:22:31.378Z,30.50
2019-04-23T17:24:54.120Z,30.51
2019-04-23T17:25:55.943Z,30.37
2019-04-23T17:27:33.103Z,30.58
2019-04-23T17:28:12.738Z,30.55
2019-04-23T17:29:15.994Z,30.81
2019-04-23T17:30:20.257Z,31.51
2019-04-23T17:32:36.737Z,31.25
2019-04-23T17:35:05.246Z,31.30
2019-04-23T17:36:09.021Z,31.23
2019-04-23T17:38:21.190Z,31.47
2019-04-23T17:39:16.501Z,31.60
2019-04-23T17:40:47.551Z,31.59
2019-04-23T17:42:07.756Z,32.22
2019-04-23T17:43:12.277Z,31.85
2019-04-23T17:44:18.831Z,32.03
2019-04-23T17:46:25.592Z,32.40
2019-04-23T17:47:35.241Z,32.30
2019-04-23T17:48:40.610Z,32.32
2019-04-23T17:50:03.246Z,32.45
2019-04-23T17:52:04.785Z,32.43
2019-04-23T17:53:16.675Z,32.70
2019-04-23T17:54:16.221Z,32.79
2019-04-23T17:55:22.246Z,32.80
2019-04-23T17:56:35.877Z,32.73